createdAt,value
2019-05-15T00:00:55.488Z,70.44
2019-05-15T00:01:55.565Z,69.58
2019-05-15T00:02:55.500Z,69.48
2019-05-15T00:03:55.519Z,69.48
2019-05-15T00:04:55.507Z,69.48
2019-05-15T00:05:55.515Z,69.20
2019-05-15T00:06:55.521Z,69.68
2019-05-15T00:07:55.533Z,69.48
2019-05-15T06:26:00.427Z,56.24
2019-05-15T06:27:00.417Z,55.31
2019-05-15T06:28:53.621Z,53.85
2019-05-15T06:29:53.605Z,53.85
2019-05-15T06:31:48.360Z,54.33
2019-05-15T06:33:01.992Z,53.85
2019-05-15T06:33:49.101Z,53.85
2019-05-15T06:34:48.535Z,53.85
2019-05-15T06:35:48.829Z,54.14
2019-05-15T06:36:48.575Z,54.43
2019-05-15T06:37:48.445Z,54.26
2019-05-15T06:38:48.379Z,54.17
2019-05-15T06:39:48.131Z,53.21
2019-05-15T06:40:48.603Z,53.02
2019-05-15T06:41:48.322Z,53.21
2019-05-15T06:42:48.403Z,53.02
2019-05-15T06:43:48.381Z,53.31
2019-05-15T06:44:48.347Z,53.02
2019-05-15T06:45:48.639Z,52.36
2019-05-15T06:46:48.297Z,52.64
2019-05-15T06:47:48.248Z,52.36
2019-05-15T06:48:48.632Z,52.36
2019-05-15T06:49:48.592Z,52.36
2019-05-15T06:50:49.066Z,51.88
2019-05-15T06:51:48.730Z,51.59
2019-05-15T06:52:48.632Z,51.71
2019-05-15T06:53:49.205Z,51.52
2019-05-15T06:54:48.508Z,50.18
2019-05-15T06:55:48.595Z,49.42
2019-05-15T06:56:49.217Z,49.23
2019-05-15T06:57:48.519Z,49.52
2019-05-15T06:58:48.654Z,49.13
2019-05-15T06:59:48.466Z,49.26
2019-05-15T07:00:48.882Z,48.49
2019-05-15T07:01:48.216Z,47.82
2019-05-15T07:02:48.694Z,47.82
2019-05-15T07:03:48.428Z,48.02
2019-05-15T07:04:48.809Z,47.34
2019-05-15T07:05:50.318Z,47.82
2019-05-15T07:06:48.940Z,47.54
2019-05-15T07:08:49.667Z,47.92
2019-05-15T07:09:48.650Z,48.02
2019-05-15T07:10:48.744Z,47.82
2019-05-15T07:11:48.289Z,48.42
2019-05-15T07:12:50.945Z,48.04
2019-05-15T07:13:48.641Z,47.56
2019-05-15T07:14:48.769Z,47.27
2019-05-15T07:15:49.539Z,46.80
2019-05-15T07:16:48.702Z,46.70
2019-05-15T07:17:48.381Z,46.22
2019-05-15T07:18:48.624Z,45.75
2019-05-15T07:19:48.604Z,46.13
2019-05-15T07:20:48.847Z,46.32
2019-05-15T07:21:48.707Z,46.51
2019-05-15T07:23:49.568Z,46.51
2019-05-15T07:24:47.985Z,46.70
2019-05-15T07:25:49.828Z,46.80
2019-05-15T07:26:48.392Z,46.42
2019-05-15T07:27:48.024Z,46.32
2019-05-15T07:28:48.607Z,46.22
2019-05-15T07:29:48.789Z,46.03
2019-05-15T07:30:49.541Z,46.34
2019-05-15T07:31:48.081Z,45.20
2019-05-15T07:32:48.721Z,45.39
2019-05-15T07:33:49.214Z,45.39
2019-05-15T07:34:48.404Z,44.91
2019-05-15T07:35:49.321Z,44.91
2019-05-15T07:36:49.270Z,44.55
2019-05-15T07:37:48.141Z,44.74
2019-05-15T07:38:48.605Z,44.55
2019-05-15T07:39:48.778Z,44.84
2019-05-15T07:40:57.173Z,43.98
2019-05-15T07:41:48.448Z,43.98
2019-05-15T07:42:48.971Z,44.17
2019-05-15T07:43:49.498Z,44.65
2019-05-15T07:44:48.380Z,44.45
2019-05-15T07:45:53.686Z,44.74
2019-05-15T07:46:48.865Z,44.57
2019-05-15T07:47:49.000Z,43.80
2019-05-15T07:48:49.052Z,44.00
2019-05-15T07:49:49.213Z,43.79
2019-05-15T07:50:49.685Z,43.98
2019-05-15T07:51:49.002Z,44.00
2019-05-15T07:52:48.629Z,44.09
2019-05-15T07:53:48.925Z,43.83
2019-05-15T07:54:48.895Z,43.44
2019-05-15T07:55:49.932Z,43.06
2019-05-15T07:56:48.908Z,42.80
2019-05-15T07:57:49.625Z,42.90
2019-05-15T07:58:52.435Z,43.27
2019-05-15T07:59:48.480Z,42.41
2019-05-15T08:00:49.253Z,42.53
2019-05-15T08:01:49.028Z,42.05
2019-05-15T08:02:48.512Z,41.94
2019-05-15T08:03:58.699Z,41.77
2019-05-15T08:04:48.595Z,42.14
2019-05-15T08:05:58.775Z,41.96
2019-05-15T08:06:49.137Z,42.82
2019-05-15T08:07:49.122Z,46.55
2019-05-15T08:08:48.895Z,45.62
2019-05-15T08:09:48.861Z,45.23
2019-05-15T08:10:49.262Z,42.96
2019-05-15T08:11:48.887Z,42.57
2019-05-15T08:12:49.522Z,42.40
2019-05-15T08:13:48.811Z,42.02
2019-05-15T08:14:50.848Z,42.02
2019-05-15T08:15:49.039Z,41.73
2019-05-15T08:16:48.774Z,41.25
2019-05-15T08:18:04.114Z,41.44
2019-05-15T08:18:48.777Z,41.63
2019-05-15T08:19:48.844Z,41.25
2019-05-15T08:20:49.329Z,40.48
2019-05-15T08:21:51.738Z,40.96
2019-05-15T08:22:49.140Z,40.39
2019-05-15T08:23:48.844Z,40.22
2019-05-15T08:24:48.862Z,39.73
2019-05-15T08:25:48.902Z,39.54
2019-05-15T08:26:48.894Z,39.16
2019-05-15T08:27:48.908Z,38.96
2019-05-15T08:28:48.953Z,38.78
2019-05-15T08:29:48.936Z,38.96
2019-05-15T08:30:49.738Z,39.64
2019-05-15T08:31:48.993Z,39.54
2019-05-15T08:32:51.446Z,39.28
2019-05-15T08:33:49.005Z,40.05
2019-05-15T08:34:49.020Z,38.79
2019-05-15T08:35:51.789Z,38.34
2019-05-15T08:36:49.049Z,38.91
2019-05-15T08:37:49.268Z,38.72
2019-05-15T08:38:49.093Z,38.79
2019-05-15T08:39:49.110Z,38.70
2019-05-15T08:40:49.284Z,39.18
2019-05-15T08:41:49.131Z,39.39
2019-05-15T08:42:56.453Z,38.81
2019-05-15T08:43:49.161Z,37.85
2019-05-15T08:44:49.180Z,37.85
2019-05-15T08:45:49.790Z,37.47
2019-05-15T08:46:49.227Z,38.04
2019-05-15T08:47:49.485Z,37.68
2019-05-15T08:48:49.327Z,36.53
2019-05-15T08:49:49.267Z,36.83
2019-05-15T08:50:49.275Z,37.97
2019-05-15T08:51:49.290Z,36.82
2019-05-15T08:52:49.310Z,37.10
2019-05-15T08:53:49.323Z,36.82
2019-05-15T08:54:49.348Z,36.53
2019-05-15T08:55:49.373Z,36.54
2019-05-15T08:56:49.375Z,36.74
2019-05-15T08:57:55.541Z,36.54
2019-05-15T08:58:49.410Z,36.16
2019-05-15T08:59:49.428Z,36.07
2019-05-15T09:00:52.222Z,36.66
2019-05-15T09:01:49.468Z,36.64
2019-05-15T09:02:49.485Z,36.16
2019-05-15T09:03:49.494Z,36.74
2019-05-15T09:04:49.535Z,36.83
2019-05-15T09:05:49.524Z,36.54
2019-05-15T09:06:49.859Z,36.25
2019-05-15T09:07:49.556Z,35.99
2019-05-15T09:08:49.587Z,35.41
2019-05-15T09:09:49.611Z,35.31
2019-05-15T09:10:50.497Z,35.50
2019-05-15T09:11:49.621Z,34.91
2019-05-15T09:12:50.338Z,35.31
2019-05-15T09:13:53.579Z,34.94
2019-05-15T09:14:49.701Z,35.04
2019-05-15T09:15:49.683Z,33.67
2019-05-15T09:16:49.705Z,34.92
2019-05-15T09:17:49.723Z,35.31
2019-05-15T09:18:49.743Z,35.14
2019-05-15T09:19:49.772Z,34.08
2019-05-15T09:20:49.783Z,33.79
2019-05-15T09:21:49.790Z,33.91
2019-05-15T09:22:49.826Z,34.17
2019-05-15T09:23:50.217Z,34.86
2019-05-15T09:24:49.841Z,33.91
2019-05-15T09:25:50.031Z,33.42
2019-05-15T09:26:49.868Z,33.13
2019-05-15T09:27:49.893Z,33.92
2019-05-15T09:28:49.912Z,33.15
2019-05-15T09:29:49.911Z,33.15
2019-05-15T09:30:49.948Z,33.82
2019-05-15T09:31:49.955Z,32.76
2019-05-15T09:32:49.969Z,32.59
2019-05-15T09:34:54.983Z,32.39
2019-05-15T09:35:50.024Z,32.41
2019-05-15T09:36:50.056Z,32.60
2019-05-15T09:37:50.059Z,32.29
2019-05-15T09:38:50.074Z,32.51
2019-05-15T09:39:50.088Z,32.68
2019-05-15T09:40:51.200Z,31.73
2019-05-15T09:41:50.130Z,31.94
2019-05-15T09:42:50.147Z,32.23
2019-05-15T09:43:50.162Z,31.85
2019-05-15T09:44:50.178Z,31.46
2019-05-15T09:45:50.197Z,31.46
2019-05-15T09:46:50.209Z,30.98
2019-05-15T09:47:50.221Z,31.76
2019-05-15T09:48:51.779Z,31.57
2019-05-15T09:49:50.267Z,31.67
2019-05-15T09:50:50.288Z,30.80
2019-05-15T09:51:50.300Z,30.80
2019-05-15T09:52:50.413Z,31.18
2019-05-15T09:53:50.339Z,31.38
2019-05-15T09:54:50.353Z,31.86
2019-05-15T09:55:50.368Z,31.37
2019-05-15T09:56:50.372Z,31.67
2019-05-15T09:57:50.399Z,29.93
2019-05-15T09:58:50.408Z,28.97
2019-05-15T09:59:50.457Z,28.48
2019-05-15T10:00:52.576Z,28.48
2019-05-15T10:01:50.472Z,28.48
2019-05-15T10:02:50.483Z,28.77
2019-05-15T10:03:50.522Z,28.78
2019-05-15T10:05:05.579Z,28.98
2019-05-15T10:05:50.532Z,28.51
2019-05-15T10:06:50.554Z,28.04
2019-05-15T10:07:50.568Z,27.67
2019-05-15T10:08:50.586Z,27.28
2019-05-15T10:09:52.445Z,27.19
2019-05-15T10:10:50.616Z,27.28
2019-05-15T10:11:50.630Z,27.17
2019-05-15T10:12:50.670Z,27.56
2019-05-15T10:13:50.684Z,27.28
2019-05-15T10:14:50.720Z,27.19
2019-05-15T10:15:51.324Z,27.20
2019-05-15T10:16:50.721Z,26.89
2019-05-15T10:17:51.367Z,26.98
2019-05-15T10:18:51.309Z,27.46
2019-05-15T10:19:50.771Z,27.19
2019-05-15T10:20:50.778Z,26.99
2019-05-15T10:21:53.021Z,27.09
2019-05-15T10:22:50.819Z,27.00
2019-05-15T10:23:50.845Z,27.01
2019-05-15T10:24:51.173Z,26.34
2019-05-15T10:25:50.885Z,25.65
2019-05-15T10:26:50.885Z,25.84
2019-05-15T10:27:50.906Z,26.81
2019-05-15T10:28:50.940Z,26.79
2019-05-15T10:29:50.942Z,26.88
2019-05-15T10:30:50.956Z,27.08
2019-05-15T10:31:50.975Z,27.28
2019-05-15T10:32:50.997Z,27.10
2019-05-15T10:33:51.014Z,26.53
2019-05-15T10:34:51.030Z,26.34
2019-05-15T10:35:51.041Z,25.95
2019-05-15T10:36:51.058Z,25.95
2019-05-15T10:37:51.081Z,25.95
2019-05-15T10:38:51.134Z,25.87
2019-05-15T10:39:52.874Z,25.49
2019-05-15T10:41:03.833Z,25.01
2019-05-15T10:41:51.139Z,25.01
2019-05-15T10:42:51.166Z,24.71
2019-05-15T10:43:56.414Z,25.40
2019-05-15T10:44:51.193Z,25.01
2019-05-15T10:45:54.559Z,24.99
2019-05-15T10:46:51.230Z,25.40
2019-05-15T10:47:51.247Z,24.93
2019-05-15T10:48:51.267Z,23.87
2019-05-15T10:49:51.285Z,23.79
2019-05-15T10:50:51.306Z,22.80
2019-05-15T10:51:51.309Z,23.28
2019-05-15T10:52:51.325Z,23.37
2019-05-15T10:53:51.348Z,23.96
2019-05-15T10:54:51.365Z,23.87
2019-05-15T10:55:51.393Z,23.79
2019-05-15T10:56:51.415Z,23.68
2019-05-15T10:57:51.417Z,24.27
2019-05-15T10:58:51.445Z,23.88
2019-05-15T10:59:51.456Z,24.00
2019-05-15T11:00:51.471Z,22.83
2019-05-15T11:01:51.484Z,23.33
2019-05-15T11:02:51.518Z,22.86
2019-05-15T11:03:51.520Z,22.45
2019-05-15T11:04:51.535Z,22.55
2019-05-15T11:05:51.553Z,22.75
2019-05-15T11:06:51.569Z,22.85
2019-05-15T11:07:51.589Z,22.93
2019-05-15T11:08:51.793Z,23.35
2019-05-15T11:09:51.655Z,22.83
2019-05-15T11:10:51.644Z,22.82
2019-05-15T11:11:51.772Z,23.31
2019-05-15T11:12:51.670Z,22.92
2019-05-15T11:13:51.691Z,23.22
2019-05-15T11:14:51.711Z,22.65
2019-05-15T11:15:51.735Z,22.07
2019-05-15T11:16:51.743Z,21.86
2019-05-15T11:17:51.768Z,21.83
2019-05-15T11:18:53.563Z,22.61
2019-05-15T11:19:51.797Z,22.72
2019-05-15T11:20:51.813Z,22.93
2019-05-15T11:21:51.850Z,22.07
2019-05-15T11:22:51.854Z,21.78
2019-05-15T11:23:51.864Z,22.36
2019-05-15T11:24:53.129Z,22.55
2019-05-15T11:25:51.907Z,21.97
2019-05-15T11:26:51.922Z,21.88
2019-05-15T11:27:51.940Z,21.48
2019-05-15T11:28:51.951Z,21.88
2019-05-15T11:29:51.979Z,21.58
2019-05-15T11:30:51.991Z,21.67
2019-05-15T11:31:52.002Z,21.47
2019-05-15T11:32:52.019Z,21.75
2019-05-15T11:33:52.049Z,21.75
2019-05-15T11:34:52.057Z,21.85
2019-05-15T11:36:00.935Z,21.77
2019-05-15T11:36:52.084Z,21.48
2019-05-15T11:37:56.767Z,21.48
2019-05-15T11:38:52.122Z,21.59
2019-05-15T11:39:52.159Z,21.41
2019-05-15T11:40:52.155Z,21.50
2019-05-15T11:41:52.181Z,20.83
2019-05-15T11:42:52.193Z,20.84
2019-05-15T11:43:52.206Z,20.25
2019-05-15T11:44:53.399Z,20.53
2019-05-15T11:45:52.235Z,20.71
2019-05-15T11:46:52.313Z,21.11
2019-05-15T11:47:52.278Z,21.19
2019-05-15T11:48:52.296Z,21.40
2019-05-15T11:49:52.319Z,20.92
2019-05-15T11:50:52.325Z,21.50
2019-05-15T11:51:52.338Z,21.02
2019-05-15T11:52:52.360Z,20.74
2019-05-15T11:53:52.373Z,20.74
2019-05-15T11:54:52.390Z,20.53
2019-05-15T11:55:52.402Z,20.91
2019-05-15T11:56:52.429Z,20.80
2019-05-15T11:57:55.613Z,21.39
2019-05-15T11:58:52.464Z,21.30
2019-05-15T11:59:55.420Z,20.64
2019-05-15T12:00:52.498Z,20.34
2019-05-15T12:01:52.509Z,20.53
2019-05-15T12:02:52.542Z,20.81
2019-05-15T12:03:52.549Z,21.66
2019-05-15T12:04:52.570Z,21.96
2019-05-15T12:05:52.581Z,22.44
2019-05-15T12:06:59.612Z,22.03
2019-05-15T12:07:52.615Z,22.52
2019-05-15T12:08:52.638Z,22.81
2019-05-15T12:09:52.649Z,23.39
2019-05-15T12:10:52.661Z,22.44
2019-05-15T12:11:52.697Z,21.97
2019-05-15T12:12:52.693Z,21.84
2019-05-15T12:13:52.710Z,22.81
2019-05-15T12:14:52.733Z,23.28
2019-05-15T12:15:52.746Z,23.58
2019-05-15T12:17:05.414Z,23.94
2019-05-15T12:17:52.780Z,24.80
2019-05-15T12:18:52.798Z,24.71
2019-05-15T12:19:55.314Z,24.50
2019-05-15T12:20:52.834Z,25.07
2019-05-15T12:21:52.846Z,25.05
2019-05-15T12:22:52.897Z,25.52
2019-05-15T12:23:52.877Z,26.21
2019-05-15T12:24:52.890Z,25.90
2019-05-15T12:25:52.899Z,26.39
2019-05-15T12:26:52.928Z,26.52
2019-05-15T12:27:52.939Z,25.40
2019-05-15T12:28:52.970Z,24.06
2019-05-15T12:29:52.972Z,22.90
2019-05-15T12:30:52.990Z,22.71
2019-05-15T12:31:52.998Z,22.91
2019-05-15T12:32:53.059Z,22.63
2019-05-15T12:33:53.040Z,22.54
2019-05-15T12:34:53.069Z,22.16
2019-05-15T12:35:53.075Z,21.86
2019-05-15T12:36:57.765Z,21.97
2019-05-15T12:37:53.109Z,22.16
2019-05-15T12:38:53.118Z,21.79
2019-05-15T12:59:53.467Z,20.66
2019-05-15T13:00:53.487Z,20.96
2019-05-15T13:01:53.501Z,20.39
2019-05-15T13:02:53.540Z,19.63
2019-05-15T13:03:53.525Z,19.15
2019-05-15T13:04:53.555Z,19.15
2019-05-15T13:05:53.575Z,19.53
2019-05-15T13:07:11.493Z,19.24
2019-05-15T13:07:53.603Z,18.66
2019-05-15T13:08:53.620Z,18.57
2019-05-15T13:09:53.652Z,18.65
2019-05-15T13:10:53.658Z,19.05
2019-05-15T13:11:53.667Z,18.37
2019-05-15T13:13:00.944Z,18.66
2019-05-15T13:13:53.710Z,19.13
2019-05-15T13:14:53.726Z,19.11
2019-05-15T13:15:53.752Z,19.50
2019-05-15T13:16:53.763Z,19.70
2019-05-15T13:17:54.082Z,19.59
2019-05-15T13:18:53.796Z,19.40
2019-05-15T13:19:53.812Z,19.31
2019-05-15T13:20:56.210Z,19.24
2019-05-15T13:21:53.851Z,19.29
2019-05-15T13:22:53.888Z,20.57
2019-05-15T13:23:53.885Z,20.10
2019-05-15T13:24:53.899Z,19.63
2019-05-15T13:25:53.932Z,19.39
2019-05-15T13:26:53.939Z,20.58
2019-05-15T13:27:53.954Z,19.98
2019-05-15T13:28:53.978Z,20.92
2019-05-15T13:29:53.984Z,22.05
2019-05-15T13:30:54.012Z,23.28
2019-05-15T13:31:54.021Z,24.13
2019-05-15T13:32:54.043Z,25.08
2019-05-15T13:33:54.061Z,25.73
2019-05-15T13:34:54.078Z,26.87
2019-05-15T13:35:54.102Z,27.24
2019-05-15T13:36:54.134Z,31.68
2019-05-15T13:37:54.124Z,32.56
2019-05-15T13:38:54.241Z,31.89
2019-05-15T13:40:54.165Z,31.62
2019-05-15T13:41:54.181Z,30.94
2019-05-15T13:42:54.198Z,29.39
2019-05-15T13:43:54.209Z,30.15
2019-05-15T13:44:54.231Z,31.41
2019-05-15T13:45:54.236Z,31.13
2019-05-15T13:46:54.257Z,30.02
2019-05-15T13:47:54.267Z,28.47
2019-05-15T13:48:54.276Z,28.47
2019-05-15T13:49:54.324Z,28.11
2019-05-15T13:50:54.316Z,26.12
2019-05-15T13:51:54.329Z,25.78
2019-05-15T13:52:54.374Z,23.47
2019-05-15T13:53:54.362Z,22.14
2019-05-15T13:54:54.382Z,22.06
2019-05-15T13:55:54.384Z,21.20
2019-05-15T13:56:54.407Z,21.58
2019-05-15T13:57:54.415Z,20.90
2019-05-15T13:58:54.429Z,20.86
2019-05-15T13:59:54.453Z,23.25
2019-05-15T14:00:54.464Z,24.60
2019-05-15T14:01:54.486Z,25.09
2019-05-15T14:02:54.504Z,24.32
2019-05-15T14:03:54.513Z,24.95
2019-05-15T14:04:54.535Z,25.88
2019-05-15T14:05:54.556Z,26.34
2019-05-15T14:06:54.558Z,27.78
2019-05-15T14:07:54.583Z,28.05
2019-05-15T14:08:54.601Z,29.32
2019-05-15T14:09:54.627Z,28.62
2019-05-15T14:10:54.624Z,29.59
2019-05-15T14:11:54.643Z,30.07
2019-05-15T14:12:54.670Z,29.47
2019-05-15T14:13:54.697Z,29.23
2019-05-15T14:14:54.705Z,28.54
2019-05-15T14:15:54.699Z,28.33
2019-05-15T14:16:54.724Z,29.19
2019-05-15T14:17:54.736Z,29.19
2019-05-15T14:18:54.740Z,29.77
2019-05-15T14:19:54.758Z,29.75
2019-05-15T14:20:54.777Z,29.83
2019-05-15T14:21:54.787Z,29.93
2019-05-15T14:22:54.804Z,30.12
2019-05-15T14:23:54.816Z,30.88
2019-05-15T14:24:54.850Z,31.46
2019-05-15T14:25:54.838Z,31.65
2019-05-15T14:26:54.850Z,31.46
2019-05-15T14:27:54.873Z,31.56
2019-05-15T14:28:54.888Z,31.27
2019-05-15T14:29:54.897Z,31.85
2019-05-15T14:30:54.913Z,31.83
2019-05-15T14:31:54.918Z,31.81
2019-05-15T14:32:55.215Z,32.68
2019-05-15T14:33:54.962Z,32.67
2019-05-15T14:34:54.977Z,32.67
2019-05-15T14:35:54.984Z,33.25
2019-05-15T14:36:55.018Z,33.25
2019-05-15T14:38:05.498Z,33.13
2019-05-15T14:38:55.017Z,33.18
2019-05-15T14:39:55.056Z,31.04
2019-05-15T14:40:55.045Z,28.29
2019-05-15T14:41:55.069Z,26.32
2019-05-15T14:42:55.085Z,24.62
2019-05-15T14:43:55.087Z,22.61
2019-05-15T14:44:55.108Z,22.12
2019-05-15T14:45:55.124Z,21.28
2019-05-15T14:46:55.132Z,20.69
2019-05-15T14:47:55.144Z,21.42
2019-05-15T14:48:55.166Z,22.85
2019-05-15T14:49:55.172Z,24.92
2019-05-15T14:50:55.237Z,25.58
2019-05-15T14:52:05.663Z,27.00
2019-05-15T14:52:55.407Z,28.23
2019-05-15T14:53:55.234Z,29.46
2019-05-15T14:54:55.247Z,30.51
2019-05-15T14:55:55.303Z,30.98
2019-05-15T14:56:55.412Z,31.85
2019-05-15T14:57:55.464Z,31.73
2019-05-15T14:58:55.460Z,32.03
2019-05-15T14:59:57.885Z,31.72
2019-05-15T15:00:55.344Z,32.39
2019-05-15T15:01:55.347Z,32.68
2019-05-15T15:02:55.370Z,32.68
2019-05-15T15:03:55.377Z,33.15
2019-05-15T15:04:55.422Z,33.15
2019-05-15T15:05:58.045Z,33.15
2019-05-15T15:06:57.621Z,32.54
2019-05-15T15:07:58.352Z,30.57
2019-05-15T15:08:55.426Z,28.77
2019-05-15T15:09:55.456Z,27.36
2019-05-15T15:10:59.243Z,26.32
2019-05-15T15:11:55.480Z,24.98
2019-05-15T15:12:55.519Z,23.73
2019-05-15T15:13:57.812Z,22.88
2019-05-15T15:14:55.531Z,22.89
2019-05-15T15:15:55.536Z,22.60
2019-05-15T15:16:55.558Z,22.21
2019-05-15T15:17:58.141Z,22.94
2019-05-15T15:18:55.587Z,24.16
2019-05-15T15:19:59.954Z,25.48
2019-05-15T15:20:57.862Z,27.10
2019-05-15T15:21:57.923Z,28.15
2019-05-15T15:22:55.641Z,28.61
2019-05-15T15:23:55.662Z,30.14
2019-05-15T15:24:55.689Z,30.80
2019-05-15T15:25:57.717Z,31.75
2019-05-15T15:26:55.711Z,32.12
2019-05-15T15:27:55.717Z,32.12
2019-05-15T15:28:55.730Z,32.59
2019-05-15T15:29:57.970Z,32.68
2019-05-15T15:30:57.887Z,32.49
2019-05-15T15:31:55.778Z,32.39
2019-05-15T15:32:57.617Z,32.87
2019-05-15T15:33:57.887Z,32.78
2019-05-15T15:34:55.823Z,32.87
2019-05-15T15:35:57.960Z,32.59
2019-05-15T15:36:57.964Z,32.59
2019-05-15T15:37:57.978Z,32.87
2019-05-15T15:38:55.867Z,32.68
2019-05-15T15:39:55.897Z,32.87
2019-05-15T15:40:55.891Z,32.97
2019-05-15T15:41:57.872Z,32.86
2019-05-15T15:42:58.069Z,33.44
2019-05-15T15:43:55.931Z,33.92
2019-05-15T15:44:57.969Z,33.82
2019-05-15T15:45:58.075Z,33.92
2019-05-15T15:46:55.994Z,33.92
2019-05-15T15:47:55.973Z,34.21
2019-05-15T15:48:55.989Z,33.92
2019-05-15T15:49:58.354Z,34.11
2019-05-15T15:50:57.985Z,34.21
2019-05-15T15:51:58.030Z,34.01
2019-05-15T15:52:56.044Z,33.81
2019-05-15T15:53:56.047Z,34.19
2019-05-15T15:54:56.066Z,34.94
2019-05-15T15:55:56.077Z,34.94
2019-05-15T15:56:56.095Z,34.66
2019-05-15T15:57:56.110Z,34.08
2019-05-15T15:58:56.115Z,34.46
2019-05-15T15:59:56.134Z,34.56
2019-05-15T16:00:56.142Z,34.17
2019-05-15T16:01:56.149Z,34.35
2019-05-15T16:03:56.180Z,35.41
2019-05-15T16:04:56.192Z,35.41
2019-05-15T16:05:56.197Z,35.79
2019-05-15T16:06:58.732Z,35.41
2019-05-15T16:07:56.229Z,35.91
2019-05-15T16:08:56.235Z,35.71
2019-05-15T16:09:56.238Z,35.04
2019-05-15T16:10:56.263Z,35.04
2019-05-15T16:11:58.327Z,35.14
2019-05-15T16:12:58.264Z,35.52
2019-05-15T16:13:58.595Z,35.16
2019-05-15T16:14:57.916Z,34.94
2019-05-15T16:15:57.897Z,35.62
2019-05-15T16:16:56.327Z,35.52
2019-05-15T16:17:56.337Z,35.52
2019-05-15T16:18:56.348Z,35.62
2019-05-15T16:19:56.362Z,35.79
2019-05-15T16:20:58.006Z,35.99
2019-05-15T16:21:56.425Z,36.27
2019-05-15T16:22:56.403Z,36.18
2019-05-15T16:23:58.247Z,36.27
2019-05-15T16:24:58.727Z,36.27
2019-05-15T16:26:00.615Z,35.99
2019-05-15T16:26:57.997Z,35.99
2019-05-15T16:27:57.781Z,35.70
2019-05-15T16:28:58.005Z,36.18
2019-05-15T16:29:58.391Z,36.08
2019-05-15T16:30:58.483Z,36.27
2019-05-15T16:31:58.187Z,36.35
2019-05-15T16:32:58.501Z,36.35
2019-05-15T16:33:58.557Z,36.93
2019-05-15T16:34:58.304Z,36.93
2019-05-15T16:35:58.060Z,36.93
2019-05-15T16:36:58.504Z,37.02
2019-05-15T16:37:58.468Z,36.93
2019-05-15T16:39:05.119Z,36.83
2019-05-15T16:40:58.303Z,37.59
2019-05-15T16:41:59.183Z,37.51
2019-05-15T16:42:58.014Z,37.59
2019-05-15T16:43:57.818Z,37.70
2019-05-15T16:44:58.442Z,37.89
2019-05-15T16:45:58.656Z,37.12
2019-05-15T16:46:58.721Z,37.22
2019-05-15T16:47:58.683Z,36.93
2019-05-15T16:48:58.349Z,37.89
2019-05-15T16:49:57.951Z,37.12
2019-05-15T16:50:58.079Z,37.70
2019-05-15T16:51:58.318Z,37.89
2019-05-15T16:52:58.397Z,37.12
2019-05-15T16:53:58.148Z,36.74
2019-05-15T16:54:58.136Z,36.93
2019-05-15T16:55:58.593Z,36.56
2019-05-15T16:56:58.726Z,36.18
2019-05-15T16:57:58.535Z,35.99
2019-05-15T16:58:56.791Z,35.89
2019-05-15T16:59:58.604Z,35.79
2019-05-15T17:00:58.514Z,35.79
2019-05-15T17:01:56.827Z,36.08
2019-05-15T17:03:09.155Z,35.89
2019-05-15T17:03:56.853Z,36.25
2019-05-15T17:04:56.862Z,36.54
2019-05-15T17:05:58.707Z,36.54
2019-05-15T17:06:58.573Z,36.47
2019-05-15T17:07:58.334Z,36.27
2019-05-15T17:08:57.926Z,36.66
2019-05-15T17:09:58.617Z,36.37
2019-05-15T17:10:58.699Z,37.02
2019-05-15T17:11:58.253Z,36.85
2019-05-15T17:12:58.272Z,36.93
2019-05-15T17:13:59.144Z,36.83
2019-05-15T17:14:58.282Z,36.83
2019-05-15T17:15:58.390Z,37.51
2019-05-15T17:16:58.616Z,37.51
2019-05-15T17:17:58.282Z,37.79
2019-05-15T17:18:58.105Z,37.79
2019-05-15T17:19:57.930Z,36.83
2019-05-15T17:20:59.062Z,36.74
2019-05-15T17:21:58.788Z,37.12
2019-05-15T17:22:57.967Z,37.20
2019-05-15T17:23:58.185Z,37.10
2019-05-15T17:24:58.347Z,37.95
2019-05-15T17:25:58.140Z,37.49
2019-05-15T17:26:59.591Z,37.47
2019-05-15T17:27:58.410Z,37.85
2019-05-15T17:28:58.208Z,37.66
2019-05-15T17:29:58.447Z,37.85
2019-05-15T17:30:58.382Z,38.34
2019-05-15T17:31:57.145Z,38.14
2019-05-15T17:32:57.168Z,38.34
2019-05-15T17:33:58.246Z,38.24
2019-05-15T17:34:58.853Z,38.53
2019-05-15T17:35:58.008Z,38.81
2019-05-15T17:37:58.101Z,38.34
2019-05-15T17:38:58.094Z,38.81
2019-05-15T17:39:58.926Z,38.91
2019-05-15T17:40:57.850Z,38.81
2019-05-15T17:41:59.385Z,38.84
2019-05-15T17:42:58.571Z,38.81
2019-05-15T17:43:57.998Z,39.39
2019-05-15T17:44:57.921Z,39.39
2019-05-15T17:46:58.481Z,39.87
2019-05-15T17:47:58.433Z,39.49
2019-05-15T17:49:06.684Z,38.91
2019-05-15T17:49:58.818Z,39.11
2019-05-15T17:50:59.161Z,39.39
2019-05-15T17:51:58.231Z,39.97
2019-05-15T17:52:58.700Z,39.68
2019-05-15T17:53:58.292Z,39.20
2019-05-15T17:54:59.281Z,39.58
2019-05-15T17:55:58.605Z,38.72
2019-05-15T17:56:58.363Z,38.72
2019-05-15T17:58:00.801Z,38.91
2019-05-15T17:58:58.166Z,39.11
2019-05-15T17:59:59.027Z,39.01
2019-05-15T18:00:59.496Z,38.72
2019-05-15T18:01:59.546Z,39.08
2019-05-15T18:02:57.463Z,39.47
2019-05-15T18:03:59.463Z,39.85
2019-05-15T18:04:58.765Z,40.43
2019-05-15T18:05:59.162Z,40.43
2019-05-15T18:06:59.067Z,40.14
2019-05-15T18:07:58.391Z,40.33
2019-05-15T18:08:59.356Z,40.52
2019-05-15T18:09:59.082Z,40.60
2019-05-15T18:10:58.677Z,40.41
2019-05-15T18:11:58.664Z,40.60
2019-05-15T18:12:58.389Z,41.08
2019-05-15T18:13:58.232Z,40.99
2019-05-15T18:14:58.331Z,41.17
2019-05-15T18:16:02.934Z,41.17
2019-05-15T18:16:58.579Z,41.46
2019-05-15T18:17:59.380Z,41.66
2019-05-15T18:18:58.607Z,41.73
2019-05-15T18:19:58.127Z,41.94
2019-05-15T18:20:58.247Z,42.04
2019-05-15T18:21:59.223Z,42.21
2019-05-15T18:22:59.112Z,42.21
2019-05-15T18:23:58.674Z,42.21
2019-05-15T18:24:58.142Z,42.50
2019-05-15T18:25:58.441Z,42.60
2019-05-15T18:26:58.456Z,42.79
2019-05-15T18:27:59.198Z,42.88
2019-05-15T18:28:58.441Z,42.88
2019-05-15T18:29:58.386Z,42.98
2019-05-15T18:30:58.787Z,43.17
2019-05-15T18:31:57.822Z,42.98
2019-05-15T18:32:58.857Z,43.07
2019-05-15T18:33:58.972Z,43.17
2019-05-15T18:34:58.765Z,43.27
2019-05-15T18:35:58.215Z,42.98
2019-05-15T18:36:57.928Z,42.88
2019-05-15T18:37:59.152Z,42.79
2019-05-15T18:38:58.846Z,42.50
2019-05-15T18:40:05.358Z,42.88
2019-05-15T18:40:58.264Z,42.79
2019-05-15T18:41:57.882Z,42.79
2019-05-15T18:42:59.317Z,42.88
2019-05-15T18:43:58.022Z,42.79
2019-05-15T18:44:58.386Z,42.60
2019-05-15T18:45:58.465Z,42.60
2019-05-15T18:46:58.270Z,42.60
2019-05-15T18:47:58.707Z,42.79
2019-05-15T18:48:58.027Z,42.79
2019-05-15T18:50:05.443Z,42.67
2019-05-15T18:50:58.795Z,43.05
2019-05-15T18:51:58.282Z,42.47
2019-05-15T18:52:58.531Z,42.77
2019-05-15T18:53:58.788Z,42.86
2019-05-15T18:54:58.695Z,42.77
2019-05-15T18:55:58.465Z,43.07
2019-05-15T18:56:58.517Z,42.96
2019-05-15T18:57:58.542Z,42.88
2019-05-15T18:58:58.019Z,42.86
2019-05-15T18:59:58.132Z,42.67
2019-05-15T19:00:58.570Z,42.96
2019-05-15T19:01:58.658Z,43.24
2019-05-15T19:02:59.475Z,43.91
2019-05-15T19:03:58.313Z,43.73
2019-05-15T19:04:58.703Z,43.63
2019-05-15T19:05:58.554Z,43.53
2019-05-15T19:06:58.379Z,43.24
2019-05-15T19:07:58.207Z,43.24
2019-05-15T19:08:58.147Z,43.44
2019-05-15T19:09:58.899Z,43.44
2019-05-15T19:10:58.657Z,43.34
2019-05-15T19:11:58.245Z,43.53
2019-05-15T19:12:58.455Z,43.82
2019-05-15T19:13:58.981Z,43.44
2019-05-15T19:14:58.797Z,43.73
2019-05-15T19:15:58.226Z,44.30
2019-05-15T19:16:59.145Z,44.11
2019-05-15T19:17:58.742Z,44.20
2019-05-15T19:18:58.410Z,44.01
2019-05-15T19:19:58.737Z,44.30
2019-05-15T19:20:58.881Z,44.49
2019-05-15T19:21:58.375Z,44.49
2019-05-15T19:22:59.163Z,44.40
2019-05-15T19:23:58.449Z,44.20
2019-05-15T19:24:58.407Z,44.68
2019-05-15T19:25:58.369Z,44.49
2019-05-15T19:26:58.665Z,44.87
2019-05-15T19:27:58.286Z,45.16
2019-05-15T19:28:59.151Z,45.16
2019-05-15T19:29:59.075Z,45.26
2019-05-15T19:30:58.709Z,45.14
2019-05-15T19:31:58.318Z,45.64
2019-05-15T19:32:58.777Z,45.45
2019-05-15T19:33:58.344Z,45.43
2019-05-15T19:34:58.933Z,45.62
2019-05-15T19:35:58.371Z,45.52
2019-05-15T19:36:58.366Z,46.10
2019-05-15T19:37:58.806Z,46.10
2019-05-15T19:38:58.405Z,46.10
2019-05-15T19:39:58.545Z,46.19